PWSweather.com
Personal Weather Stations
Station Observations
COONRAPIDS
Minneapolis, MN 55433

Minneapolis, MN 55433

Lat: 45.187721, Lon: -93.36828

Elevation: 898

Station Type: Davis Vantage Pro 2

High Low Average
Temperature 44.0°F6.7°C 24.1°F-4.4°C 33.4°F0.8°C
Dew Point 31.7°F-0.2°C 20.7°F-6.3°C 26.9°F-2.8°C
Winds 4.6 mph 7.4 kmh Calm Calm 1.0 mph SSW1.6 kmh SSW
Wind Gusts 9.2 mph14.8 kmh -- 2.0 mph3.2 kmh
Humidity 88% 60% 77%
Pressure 30.17 in1021.7 mb 29.73 in1006.8 mb -
Precipitation 0.16 in4.1 mm - -
Hour Temp Dew Point Humidity Winds Wind Gusts Pressure Precip Precip Rate Daily Precip Total
12:00 AM 29.6°F-1.3°C 25.7°F-3.5°C 85% Calm Calm -- 29.73 in1006.8 mb - 0.00 in0.0 mm 0.00 in0.0 mm
12:10 AM 29.2°F-1.6°C 25.2°F-3.8°C 85% Calm Calm -- 29.73 in1006.8 mb - 0.00 in0.0 mm 0.00 in0.0 mm
12:20 AM 29.0°F-1.7°C 25.0°F-3.9°C 85% Calm Calm -- 29.73 in1006.8 mb - 0.00 in0.0 mm 0.00 in0.0 mm
12:30 AM 28.7°F-1.8°C 24.8°F-4.0°C 85% Calm Calm -- 29.73 in1006.8 mb - 0.00 in0.0 mm 0.00 in0.0 mm
12:40 AM 28.8°F-1.8°C 25.1°F-3.8°C 86% Calm Calm -- 29.73 in1006.8 mb - 0.00 in0.0 mm 0.00 in0.0 mm
12:50 AM 29.1°F-1.6°C 25.5°F-3.6°C 86% Calm Calm -- 29.73 in1006.8 mb - 0.00 in0.0 mm 0.00 in0.0 mm
01:00 AM 29.0°F-1.7°C 25.3°F-3.7°C 86% Calm Calm -- 29.74 in1007.1 mb - 0.00 in0.0 mm 0.00 in0.0 mm
01:10 AM 28.9°F-1.7°C 25.2°F-3.8°C 86% Calm Calm -- 29.74 in1007.1 mb - 0.00 in0.0 mm 0.00 in0.0 mm
01:20 AM 28.8°F-1.8°C 25.2°F-3.8°C 86% Calm Calm -- 29.73 in1006.8 mb - 0.00 in0.0 mm 0.00 in0.0 mm
01:30 AM 29.5°F-1.4°C 26.1°F-3.3°C 87% Calm Calm -- 29.73 in1006.8 mb - 0.00 in0.0 mm 0.00 in0.0 mm
01:40 AM 29.5°F-1.4°C 25.8°F-3.4°C 86% Calm Calm -- 29.74 in1007.1 mb - 0.00 in0.0 mm 0.00 in0.0 mm
01:50 AM 29.1°F-1.6°C 25.5°F-3.6°C 86% Calm Calm -- 29.75 in1007.5 mb - 0.00 in0.0 mm 0.00 in0.0 mm
02:00 AM 28.7°F-1.8°C 25.0°F-3.9°C 86% Calm Calm -- 29.74 in1007.1 mb - 0.00 in0.0 mm 0.00 in0.0 mm
02:10 AM 28.5°F-1.9°C 24.8°F-4.0°C 86% Calm Calm -- 29.74 in1007.1 mb - 0.00 in0.0 mm 0.00 in0.0 mm
02:20 AM 28.2°F-2.1°C 24.6°F-4.1°C 86% Calm Calm -- 29.74 in1007.1 mb - 0.00 in0.0 mm 0.00 in0.0 mm
02:30 AM 28.0°F-2.2°C 24.4°F-4.2°C 86% Calm Calm -- 29.74 in1007.1 mb - 0.00 in0.0 mm 0.00 in0.0 mm
02:40 AM 27.7°F-2.4°C 24.1°F-4.4°C 86% Calm Calm -- 29.74 in1007.1 mb - 0.00 in0.0 mm 0.00 in0.0 mm
02:50 AM 27.4°F-2.6°C 23.8°F-4.6°C 86% Calm Calm -- 29.75 in1007.5 mb - 0.00 in0.0 mm 0.00 in0.0 mm
03:00 AM 27.1°F-2.7°C 23.7°F-4.6°C 87% Calm Calm -- 29.75 in1007.5 mb - 0.00 in0.0 mm 0.00 in0.0 mm
03:10 AM 27.0°F-2.8°C 23.6°F-4.7°C 87% Calm Calm -- 29.75 in1007.5 mb - 0.00 in0.0 mm 0.00 in0.0 mm
03:20 AM 27.1°F-2.7°C 23.7°F-4.6°C 87% Calm Calm -- 29.75 in1007.5 mb - 0.00 in0.0 mm 0.00 in0.0 mm
03:30 AM 26.7°F-2.9°C 23.4°F-4.8°C 87% Calm Calm -- 29.75 in1007.5 mb - 0.00 in0.0 mm 0.00 in0.0 mm
03:40 AM 26.3°F-3.2°C 23.0°F-5.0°C 87% Calm Calm -- 29.75 in1007.5 mb - 0.00 in0.0 mm 0.00 in0.0 mm
03:50 AM 27.3°F-2.6°C 24.2°F-4.3°C 88% Calm Calm -- 29.74 in1007.1 mb - 0.00 in0.0 mm 0.00 in0.0 mm
04:00 AM 28.8°F-1.8°C 25.7°F-3.5°C 88% Calm Calm -- 29.74 in1007.1 mb - 0.00 in0.0 mm 0.00 in0.0 mm
04:10 AM 29.1°F-1.6°C 26.0°F-3.3°C 88% Calm Calm -- 29.74 in1007.1 mb - 0.00 in0.0 mm 0.00 in0.0 mm
04:20 AM 29.0°F-1.7°C 25.6°F-3.6°C 87% Calm Calm -- 29.74 in1007.1 mb - 0.00 in0.0 mm 0.00 in0.0 mm
04:30 AM 29.3°F-1.5°C 25.9°F-3.4°C 87% Calm Calm -- 29.74 in1007.1 mb - 0.00 in0.0 mm 0.00 in0.0 mm
04:40 AM 29.9°F-1.2°C 26.5°F-3.1°C 87% Calm Calm -- 29.74 in1007.1 mb - 0.00 in0.0 mm 0.00 in0.0 mm
04:50 AM 30.3°F-0.9°C 26.9°F-2.8°C 87% Calm Calm -- 29.74 in1007.1 mb - 0.00 in0.0 mm 0.00 in0.0 mm
05:00 AM 30.6°F-0.8°C 26.9°F-2.8°C 86% 1.2 mph SW1.9 kmh SW 3.5 mph5.6 kmh 29.73 in1006.8 mb - 0.00 in0.0 mm 0.00 in0.0 mm
05:10 AM 30.8°F-0.7°C 26.8°F-2.9°C 85% Calm Calm -- 29.76 in1007.8 mb - 0.00 in0.0 mm 0.00 in0.0 mm
05:20 AM 30.8°F-0.7°C 26.5°F-3.1°C 84% Calm Calm 5.8 mph9.3 kmh 29.75 in1007.5 mb - 0.00 in0.0 mm 0.00 in0.0 mm
05:30 AM 30.6°F-0.8°C 26.1°F-3.3°C 83% Calm Calm 2.3 mph3.7 kmh 29.75 in1007.5 mb - 0.00 in0.0 mm 0.00 in0.0 mm
05:40 AM 30.5°F-0.8°C 25.9°F-3.4°C 83% Calm Calm -- 29.74 in1007.1 mb - 0.00 in0.0 mm 0.00 in0.0 mm
05:50 AM 30.2°F-1.0°C 25.6°F-3.6°C 83% Calm Calm -- 29.75 in1007.5 mb - 0.00 in0.0 mm 0.00 in0.0 mm
06:00 AM 29.9°F-1.2°C 25.4°F-3.7°C 83% Calm Calm -- 29.75 in1007.5 mb - 0.00 in0.0 mm 0.00 in0.0 mm
06:10 AM 29.7°F-1.3°C 25.2°F-3.8°C 83% Calm Calm -- 29.75 in1007.5 mb - 0.00 in0.0 mm 0.00 in0.0 mm
06:20 AM 29.1°F-1.6°C 24.6°F-4.1°C 83% Calm Calm -- 29.75 in1007.5 mb - 0.00 in0.0 mm 0.00 in0.0 mm
06:30 AM 28.4°F-2.0°C 23.9°F-4.5°C 83% Calm Calm -- 29.76 in1007.8 mb - 0.00 in0.0 mm 0.00 in0.0 mm
06:40 AM 27.9°F-2.3°C 23.7°F-4.6°C 84% Calm Calm -- 29.76 in1007.8 mb - 0.00 in0.0 mm 0.00 in0.0 mm
06:50 AM 29.2°F-1.6°C 25.3°F-3.7°C 85% Calm Calm -- 29.77 in1008.1 mb - 0.00 in0.0 mm 0.00 in0.0 mm
07:00 AM 30.0°F-1.1°C 26.1°F-3.3°C 85% 1.2 mph SW1.9 kmh SW 1.2 mph1.9 kmh 29.77 in1008.1 mb - 0.00 in0.0 mm 0.00 in0.0 mm
07:10 AM 30.9°F-0.6°C 26.3°F-3.2°C 83% Calm Calm 3.5 mph5.6 kmh 29.77 in1008.1 mb - 0.00 in0.0 mm 0.00 in0.0 mm
07:20 AM 31.3°F-0.4°C 26.4°F-3.1°C 82% 1.2 mph WSW1.9 kmh WSW 3.5 mph5.6 kmh 29.77 in1008.1 mb - 0.00 in0.0 mm 0.00 in0.0 mm
07:30 AM 31.6°F-0.2°C 26.4°F-3.1°C 81% 1.2 mph WSW1.9 kmh WSW 3.5 mph5.6 kmh 29.77 in1008.1 mb - 0.00 in0.0 mm 0.00 in0.0 mm
07:40 AM 32.1°F0.1°C 26.6°F-3.0°C 80% 1.2 mph WSW1.9 kmh WSW 5.8 mph9.3 kmh 29.77 in1008.1 mb - 0.00 in0.0 mm 0.00 in0.0 mm
07:50 AM 32.5°F0.3°C 26.7°F-2.9°C 79% 1.2 mph W1.9 kmh W 3.5 mph5.6 kmh 29.78 in1008.5 mb - 0.00 in0.0 mm 0.00 in0.0 mm
08:00 AM 32.5°F0.3°C 26.7°F-2.9°C 79% 1.2 mph W1.9 kmh W 3.5 mph5.6 kmh 29.78 in1008.5 mb - 0.00 in0.0 mm 0.00 in0.0 mm
08:10 AM 32.3°F0.2°C 26.5°F-3.1°C 79% Calm Calm -- 29.79 in1008.8 mb - 0.00 in0.0 mm 0.00 in0.0 mm
08:20 AM 32.3°F0.2°C 26.5°F-3.1°C 79% Calm Calm -- 29.80 in1009.1 mb - 0.00 in0.0 mm 0.00 in0.0 mm
08:30 AM 32.3°F0.2°C 26.5°F-3.1°C 79% Calm Calm -- 29.81 in1009.5 mb - 0.00 in0.0 mm 0.00 in0.0 mm
08:40 AM 32.8°F0.4°C 27.0°F-2.8°C 79% Calm Calm -- 29.81 in1009.5 mb - 0.00 in0.0 mm 0.00 in0.0 mm
08:50 AM 33.4°F0.8°C 27.3°F-2.6°C 78% Calm Calm 3.5 mph5.6 kmh 29.82 in1009.8 mb - 0.00 in0.0 mm 0.00 in0.0 mm
09:00 AM 34.3°F1.3°C 27.5°F-2.5°C 76% 1.2 mph W1.9 kmh W 4.6 mph7.4 kmh 29.82 in1009.8 mb - 0.00 in0.0 mm 0.00 in0.0 mm
09:10 AM 35.1°F1.7°C 27.9°F-2.3°C 75% 1.2 mph WSW1.9 kmh WSW 3.5 mph5.6 kmh 29.82 in1009.8 mb - 0.00 in0.0 mm 0.00 in0.0 mm
09:20 AM 35.7°F2.1°C 28.2°F-2.1°C 74% 2.3 mph W3.7 kmh W 4.6 mph7.4 kmh 29.83 in1010.2 mb - 0.00 in0.0 mm 0.00 in0.0 mm
09:30 AM 36.5°F2.5°C 28.3°F-2.1°C 72% Calm Calm -- 29.83 in1010.2 mb - 0.00 in0.0 mm 0.00 in0.0 mm
09:40 AM 36.8°F2.7°C 28.3°F-2.1°C 71% Calm Calm -- 29.84 in1010.5 mb - 0.00 in0.0 mm 0.00 in0.0 mm
09:50 AM 37.1°F2.8°C 28.6°F-1.9°C 71% 1.2 mph WNW1.9 kmh WNW 6.9 mph11.1 kmh 29.84 in1010.5 mb - 0.00 in0.0 mm 0.00 in0.0 mm
10:00 AM 37.5°F3.1°C 28.6°F-1.9°C 70% Calm Calm -- 29.84 in1010.5 mb - 0.00 in0.0 mm 0.00 in0.0 mm
10:10 AM 38.0°F3.3°C 28.7°F-1.8°C 69% 1.2 mph W1.9 kmh W 3.5 mph5.6 kmh 29.85 in1010.8 mb - 0.00 in0.0 mm 0.00 in0.0 mm
10:20 AM 38.5°F3.6°C 29.2°F-1.6°C 69% Calm Calm 2.3 mph3.7 kmh 29.85 in1010.8 mb - 0.00 in0.0 mm 0.00 in0.0 mm
10:30 AM 39.1°F3.9°C 29.4°F-1.4°C 68% Calm Calm -- 29.85 in1010.8 mb - 0.00 in0.0 mm 0.00 in0.0 mm
10:40 AM 39.7°F4.3°C 29.6°F-1.3°C 67% 2.3 mph NW3.7 kmh NW 4.6 mph7.4 kmh 29.86 in1011.2 mb - 0.00 in0.0 mm 0.00 in0.0 mm
10:50 AM 40.3°F4.6°C 29.9°F-1.2°C 66% Calm Calm 4.6 mph7.4 kmh 29.86 in1011.2 mb - 0.00 in0.0 mm 0.00 in0.0 mm
11:00 AM 40.8°F4.9°C 29.9°F-1.2°C 65% 2.3 mph WNW3.7 kmh WNW 3.5 mph5.6 kmh 29.86 in1011.2 mb - 0.00 in0.0 mm 0.00 in0.0 mm
11:10 AM 41.3°F5.2°C 30.1°F-1.1°C 64% 1.2 mph NW1.9 kmh NW 4.6 mph7.4 kmh 29.86 in1011.2 mb - 0.00 in0.0 mm 0.00 in0.0 mm
11:20 AM 42.0°F5.6°C 30.3°F-0.9°C 63% 2.3 mph WNW3.7 kmh WNW 6.9 mph11.1 kmh 29.86 in1011.2 mb - 0.00 in0.0 mm 0.00 in0.0 mm
11:30 AM 42.7°F5.9°C 30.6°F-0.8°C 62% 1.2 mph NW1.9 kmh NW 9.2 mph14.8 kmh 29.87 in1011.5 mb - 0.00 in0.0 mm 0.00 in0.0 mm
11:40 AM 43.2°F6.2°C 30.2°F-1.0°C 60% 2.3 mph NW3.7 kmh NW 6.9 mph11.1 kmh 29.87 in1011.5 mb - 0.01 in0.3 mm 0.01 in0.3 mm
11:50 AM 43.0°F6.1°C 30.5°F-0.8°C 61% 2.3 mph NW3.7 kmh NW 3.5 mph5.6 kmh 29.87 in1011.5 mb - 0.02 in0.5 mm 0.03 in0.8 mm
12:00 PM 42.9°F6.1°C 30.3°F-0.9°C 61% 3.5 mph W5.6 kmh W 6.9 mph11.1 kmh 29.87 in1011.5 mb - 0.02 in0.5 mm 0.05 in1.3 mm
12:10 PM 42.9°F6.1°C 30.8°F-0.7°C 62% 2.3 mph WSW3.7 kmh WSW 4.6 mph7.4 kmh 29.88 in1011.9 mb - 0.00 in0.0 mm 0.05 in1.3 mm
12:20 PM 42.9°F6.1°C 30.8°F-0.7°C 62% Calm Calm 2.3 mph3.7 kmh 29.88 in1011.9 mb - 0.01 in0.3 mm 0.06 in1.5 mm
12:30 PM 42.7°F5.9°C 30.6°F-0.8°C 62% 4.6 mph NW7.4 kmh NW 6.9 mph11.1 kmh 29.88 in1011.9 mb - 0.01 in0.3 mm 0.07 in1.8 mm
12:40 PM 42.6°F5.9°C 30.5°F-0.8°C 62% 2.3 mph NW3.7 kmh NW 8.1 mph13.0 kmh 29.88 in1011.9 mb - 0.01 in0.3 mm 0.08 in2.0 mm
12:50 PM 42.8°F6.0°C 31.1°F-0.5°C 63% 3.5 mph NW5.6 kmh NW 8.1 mph13.0 kmh 29.88 in1011.9 mb - 0.00 in0.0 mm 0.08 in2.0 mm
01:00 PM 43.1°F6.2°C 30.9°F-0.6°C 62% 3.5 mph W5.6 kmh W 9.2 mph14.8 kmh 29.89 in1012.2 mb - 0.01 in0.3 mm 0.09 in2.3 mm
01:10 PM 43.2°F6.2°C 31.1°F-0.5°C 62% 2.3 mph NW3.7 kmh NW 6.9 mph11.1 kmh 29.89 in1012.2 mb - 0.01 in0.3 mm 0.10 in2.5 mm
01:20 PM 43.1°F6.2°C 31.0°F-0.6°C 62% Calm Calm 4.6 mph7.4 kmh 29.89 in1012.2 mb - 0.01 in0.3 mm 0.10 in2.5 mm
01:30 PM 43.4°F6.3°C 31.3°F-0.4°C 62% 1.2 mph NW1.9 kmh NW 8.1 mph13.0 kmh 29.90 in1012.5 mb - 0.01 in0.3 mm 0.11 in2.8 mm
01:40 PM 43.6°F6.4°C 31.0°F-0.6°C 61% 1.2 mph NW1.9 kmh NW 3.5 mph5.6 kmh 29.90 in1012.5 mb - 0.00 in0.0 mm 0.11 in2.8 mm
01:50 PM 43.6°F6.4°C 31.4°F-0.3°C 62% 2.3 mph WNW3.7 kmh WNW 3.5 mph5.6 kmh 29.91 in1012.9 mb - 0.01 in0.3 mm 0.12 in3.0 mm
02:00 PM 43.6°F6.4°C 31.4°F-0.3°C 62% 1.2 mph WNW1.9 kmh WNW 1.2 mph1.9 kmh 29.91 in1012.9 mb - 0.00 in0.0 mm 0.12 in3.0 mm
02:10 PM 43.6°F6.4°C 31.4°F-0.3°C 62% Calm Calm 1.2 mph1.9 kmh 29.92 in1013.2 mb - 0.01 in0.3 mm 0.13 in3.3 mm
02:20 PM 43.8°F6.6°C 31.6°F-0.2°C 62% 2.3 mph NW3.7 kmh NW 5.8 mph9.3 kmh 29.92 in1013.2 mb - 0.00 in0.0 mm 0.13 in3.3 mm
02:30 PM 43.9°F6.6°C 31.7°F-0.2°C 62% Calm Calm 4.6 mph7.4 kmh 29.92 in1013.2 mb - 0.00 in0.0 mm 0.13 in3.3 mm
02:40 PM 44.0°F6.7°C 31.4°F-0.3°C 61% Calm Calm -- 29.93 in1013.5 mb - 0.01 in0.3 mm 0.14 in3.6 mm
02:50 PM 43.8°F6.6°C 31.6°F-0.2°C 62% Calm Calm -- 29.94 in1013.9 mb - 0.00 in0.0 mm 0.14 in3.6 mm
03:00 PM 43.6°F6.4°C 31.4°F-0.3°C 62% 3.5 mph NNW5.6 kmh NNW 6.9 mph11.1 kmh 29.95 in1014.2 mb - 0.01 in0.3 mm 0.15 in3.8 mm
03:10 PM 43.2°F6.2°C 31.5°F-0.3°C 63% 2.3 mph NW3.7 kmh NW 6.9 mph11.1 kmh 29.95 in1014.2 mb - 0.01 in0.3 mm 0.15 in3.8 mm
03:20 PM 42.8°F6.0°C 31.1°F-0.5°C 63% 2.3 mph NW3.7 kmh NW 6.9 mph11.1 kmh 29.96 in1014.6 mb - 0.00 in0.0 mm 0.15 in3.8 mm
03:30 PM 42.5°F5.8°C 31.5°F-0.3°C 65% 1.2 mph NW1.9 kmh NW 3.5 mph5.6 kmh 29.96 in1014.6 mb - 0.00 in0.0 mm 0.15 in3.8 mm
03:40 PM 42.2°F5.7°C 31.3°F-0.4°C 65% Calm Calm 1.2 mph1.9 kmh 29.97 in1014.9 mb - 0.00 in0.0 mm 0.15 in3.8 mm
03:50 PM 41.9°F5.5°C 31.4°F-0.3°C 66% Calm Calm 2.3 mph3.7 kmh 29.97 in1014.9 mb - 0.00 in0.0 mm 0.15 in3.8 mm
04:00 PM 41.6°F5.3°C 31.1°F-0.5°C 66% 3.5 mph NNW5.6 kmh NNW 4.6 mph7.4 kmh 29.98 in1015.2 mb - 0.01 in0.3 mm 0.16 in4.1 mm
04:10 PM 41.4°F5.2°C 31.2°F-0.4°C 67% 1.2 mph NNE1.9 kmh NNE 2.3 mph3.7 kmh 29.98 in1015.2 mb - 0.00 in0.0 mm 0.16 in4.1 mm
04:20 PM 40.7°F4.8°C 30.6°F-0.8°C 67% Calm Calm -- 29.99 in1015.6 mb - 0.00 in0.0 mm 0.16 in4.1 mm
04:30 PM 39.8°F4.3°C 30.4°F-0.9°C 69% Calm Calm 1.2 mph1.9 kmh 29.99 in1015.6 mb - 0.00 in0.0 mm 0.16 in4.1 mm
04:40 PM 38.9°F3.8°C 29.9°F-1.2°C 70% Calm Calm -- 30.00 in1015.9 mb - 0.00 in0.0 mm 0.16 in4.1 mm
04:50 PM 38.4°F3.6°C 29.8°F-1.2°C 71% Calm Calm 1.2 mph1.9 kmh 30.00 in1015.9 mb - 0.00 in0.0 mm 0.16 in4.1 mm
05:00 PM 38.0°F3.3°C 29.8°F-1.2°C 72% Calm Calm 1.2 mph1.9 kmh 30.01 in1016.3 mb - 0.00 in0.0 mm 0.16 in4.1 mm
05:10 PM 37.5°F3.1°C 29.6°F-1.3°C 73% 2.3 mph N3.7 kmh N 2.3 mph3.7 kmh 30.02 in1016.6 mb - 0.00 in0.0 mm 0.16 in4.1 mm
05:20 PM 37.0°F2.8°C 29.5°F-1.4°C 74% 3.5 mph NNE5.6 kmh NNE 9.2 mph14.8 kmh 30.03 in1016.9 mb - 0.00 in0.0 mm 0.16 in4.1 mm
05:30 PM 36.3°F2.4°C 28.8°F-1.8°C 74% 2.3 mph NNE3.7 kmh NNE 3.5 mph5.6 kmh 30.03 in1016.9 mb - 0.00 in0.0 mm 0.16 in4.1 mm
05:40 PM 35.6°F2.0°C 28.5°F-1.9°C 75% Calm Calm -- 30.04 in1017.3 mb - 0.00 in0.0 mm 0.16 in4.1 mm
05:50 PM 34.8°F1.6°C 28.0°F-2.2°C 76% 1.2 mph NE1.9 kmh NE 2.3 mph3.7 kmh 30.04 in1017.3 mb - 0.00 in0.0 mm 0.16 in4.1 mm
06:00 PM 34.3°F1.3°C 27.8°F-2.3°C 77% 1.2 mph NE1.9 kmh NE 3.5 mph5.6 kmh 30.05 in1017.6 mb - 0.00 in0.0 mm 0.16 in4.1 mm
06:10 PM 33.8°F1.0°C 27.7°F-2.4°C 78% 1.2 mph NE1.9 kmh NE 3.5 mph5.6 kmh 30.05 in1017.6 mb - 0.00 in0.0 mm 0.16 in4.1 mm
06:20 PM 33.3°F0.7°C 27.2°F-2.7°C 78% 1.2 mph NNE1.9 kmh NNE 2.3 mph3.7 kmh 30.06 in1017.9 mb - 0.00 in0.0 mm 0.16 in4.1 mm
06:30 PM 32.9°F0.5°C 27.1°F-2.7°C 79% Calm Calm -- 30.07 in1018.3 mb - 0.00 in0.0 mm 0.16 in4.1 mm
06:40 PM 32.5°F0.3°C 27.0°F-2.8°C 80% Calm Calm 1.2 mph1.9 kmh 30.08 in1018.6 mb - 0.00 in0.0 mm 0.16 in4.1 mm
06:50 PM 32.3°F0.2°C 26.8°F-2.9°C 80% 1.2 mph NNE1.9 kmh NNE 3.5 mph5.6 kmh 30.09 in1019.0 mb - 0.00 in0.0 mm 0.16 in4.1 mm
07:00 PM 32.0°F0.0°C 26.5°F-3.1°C 80% Calm Calm -- 30.09 in1019.0 mb - 0.00 in0.0 mm 0.16 in4.1 mm
07:10 PM 31.5°F-0.3°C 26.0°F-3.3°C 80% Calm Calm -- 30.09 in1019.0 mb - 0.00 in0.0 mm 0.16 in4.1 mm
07:20 PM 31.0°F-0.6°C 25.8°F-3.4°C 81% Calm Calm -- 30.10 in1019.3 mb - 0.00 in0.0 mm 0.16 in4.1 mm
07:30 PM 30.4°F-0.9°C 25.3°F-3.7°C 81% Calm Calm -- 30.10 in1019.3 mb - 0.00 in0.0 mm 0.16 in4.1 mm
07:40 PM 29.9°F-1.2°C 24.7°F-4.1°C 81% Calm Calm -- 30.11 in1019.6 mb - 0.00 in0.0 mm 0.16 in4.1 mm
07:50 PM 29.4°F-1.4°C 24.6°F-4.1°C 82% Calm Calm -- 30.11 in1019.6 mb - 0.00 in0.0 mm 0.16 in4.1 mm
08:00 PM 29.2°F-1.6°C 24.6°F-4.1°C 83% Calm Calm -- 30.12 in1020.0 mb - 0.00 in0.0 mm 0.16 in4.1 mm
08:10 PM 28.8°F-1.8°C 24.3°F-4.3°C 83% Calm Calm -- 30.13 in1020.3 mb - 0.00 in0.0 mm 0.16 in4.1 mm
08:20 PM 28.5°F-1.9°C 24.3°F-4.3°C 84% Calm Calm -- 30.12 in1020.0 mb - 0.00 in0.0 mm 0.16 in4.1 mm
08:30 PM 28.3°F-2.1°C 24.1°F-4.4°C 84% Calm Calm -- 30.13 in1020.3 mb - 0.00 in0.0 mm 0.16 in4.1 mm
08:40 PM 28.2°F-2.1°C 24.2°F-4.3°C 85% Calm Calm -- 30.14 in1020.7 mb - 0.00 in0.0 mm 0.16 in4.1 mm
08:50 PM 27.8°F-2.3°C 23.9°F-4.5°C 85% Calm Calm -- 30.14 in1020.7 mb - 0.00 in0.0 mm 0.16 in4.1 mm
09:00 PM 27.5°F-2.5°C 23.6°F-4.7°C 85% Calm Calm -- 30.14 in1020.7 mb - 0.00 in0.0 mm 0.16 in4.1 mm
09:10 PM 27.3°F-2.6°C 23.4°F-4.8°C 85% Calm Calm -- 30.15 in1021.0 mb - 0.00 in0.0 mm 0.16 in4.1 mm
09:20 PM 27.1°F-2.7°C 23.5°F-4.7°C 86% Calm Calm -- 30.15 in1021.0 mb - 0.00 in0.0 mm 0.16 in4.1 mm
09:30 PM 26.9°F-2.8°C 23.3°F-4.8°C 86% Calm Calm -- 30.16 in1021.3 mb - 0.00 in0.0 mm 0.16 in4.1 mm
09:40 PM 26.8°F-2.9°C 23.2°F-4.9°C 86% Calm Calm -- 30.15 in1021.0 mb - 0.00 in0.0 mm 0.16 in4.1 mm
09:50 PM 26.6°F-3.0°C 23.0°F-5.0°C 86% Calm Calm -- 30.16 in1021.3 mb - 0.00 in0.0 mm 0.16 in4.1 mm
10:00 PM 26.3°F-3.2°C 22.7°F-5.2°C 86% Calm Calm -- 30.16 in1021.3 mb - 0.00 in0.0 mm 0.16 in4.1 mm
10:10 PM 26.2°F-3.2°C 22.6°F-5.2°C 86% Calm Calm -- 30.16 in1021.3 mb - 0.00 in0.0 mm 0.16 in4.1 mm
10:20 PM 26.0°F-3.3°C 22.4°F-5.3°C 86% Calm Calm -- 30.16 in1021.3 mb - 0.00 in0.0 mm 0.16 in4.1 mm
10:30 PM 26.0°F-3.3°C 22.4°F-5.3°C 86% Calm Calm -- 30.16 in1021.3 mb - 0.00 in0.0 mm 0.16 in4.1 mm
10:40 PM 25.6°F-3.6°C 22.0°F-5.6°C 86% Calm Calm -- 30.16 in1021.3 mb - 0.00 in0.0 mm 0.16 in4.1 mm
10:50 PM 25.3°F-3.7°C 21.7°F-5.7°C 86% Calm Calm -- 30.16 in1021.3 mb - 0.00 in0.0 mm 0.16 in4.1 mm
11:00 PM 24.9°F-3.9°C 21.6°F-5.8°C 87% Calm Calm -- 30.16 in1021.3 mb - 0.00 in0.0 mm 0.16 in4.1 mm
11:10 PM 24.5°F-4.2°C 21.2°F-6.0°C 87% Calm Calm -- 30.16 in1021.3 mb - 0.00 in0.0 mm 0.16 in4.1 mm
11:20 PM 24.3°F-4.3°C 20.7°F-6.3°C 86% Calm Calm -- 30.15 in1021.0 mb - 0.00 in0.0 mm 0.16 in4.1 mm
11:30 PM 24.1°F-4.4°C 20.8°F-6.2°C 87% Calm Calm -- 30.16 in1021.3 mb - 0.00 in0.0 mm 0.16 in4.1 mm
11:40 PM 24.3°F-4.3°C 21.0°F-6.1°C 87% Calm Calm -- 30.17 in1021.7 mb - 0.00 in0.0 mm 0.16 in4.1 mm
11:50 PM 24.6°F-4.1°C 21.3°F-5.9°C 87% Calm Calm -- 30.17 in1021.7 mb - 0.00 in0.0 mm 0.16 in4.1 mm